Time;durP1;ratioP1;P1;durP2;ratioP2;P2;SDS_P1;SDS_P2;PMS_P1;PMS_P2;Temp;Humidity;BMP_temperature;BMP_pressure;BME280_temperature;BME280_humidity;BME280_pressure;Samples;Min_cycle;Max_cycle;Signal;HPM_P1;HPM_P2
2022/09/02 00:00:52;;;;;;;1.13;0.98;;;19.50;66.10;;;;;;5064428;28;20036;-36
2022/09/02 00:03:19;;;;;;;0.65;0.40;;;19.50;66.10;;;;;;5064870;28;20025;-34
2022/09/02 00:05:45;;;;;;;3.05;0.73;;;19.50;66.20;;;;;;5064245;28;20423;-36
2022/09/02 00:08:11;;;;;;;2.05;0.50;;;19.40;66.20;;;;;;5064718;28;20096;-34
2022/09/02 00:10:42;;;;;;;0.82;0.50;;;19.40;66.30;;;;;;5063239;28;20020;-35
2022/09/02 00:13:10;;;;;;;1.35;0.60;;;19.40;66.40;;;;;;5064488;28;20025;-36
2022/09/02 00:15:36;;;;;;;1.00;0.55;;;19.30;66.40;;;;;;5065005;28;20028;-35
2022/09/02 00:18:03;;;;;;;1.40;0.60;;;19.30;66.50;;;;;;5064148;28;20415;-35
2022/09/02 00:20:30;;;;;;;0.55;0.50;;;19.30;66.60;;;;;;5064414;28;20032;-35
2022/09/02 00:22:56;;;;;;;1.10;0.70;;;19.20;66.60;;;;;;5062852;28;20056;-34
2022/09/02 00:25:22;;;;;;;1.63;0.60;;;19.20;66.80;;;;;;5064678;28;20040;-34
2022/09/02 00:27:48;;;;;;;0.70;0.60;;;19.20;66.80;;;;;;5063549;28;20124;-34
2022/09/02 00:30:14;;;;;;;2.78;0.65;;;19.10;66.80;;;;;;5064760;28;20025;-35
2022/09/02 00:32:40;;;;;;;1.95;0.50;;;19.10;66.90;;;;;;5063176;28;20138;-35
2022/09/02 00:35:06;;;;;;;0.75;0.60;;;19.10;67.00;;;;;;5064450;28;20028;-37
2022/09/02 00:37:32;;;;;;;0.55;0.55;;;19.10;67.00;;;;;;5064075;28;20056;-35
2022/09/02 00:39:57;;;;;;;0.70;0.50;;;19.10;67.00;;;;;;5063455;28;20152;-35
2022/09/02 00:42:24;;;;;;;2.25;0.68;;;19.00;67.00;;;;;;5063808;28;20036;-36
2022/09/02 00:44:50;;;;;;;0.55;0.50;;;19.00;67.10;;;;;;5064241;28;20029;-35
2022/09/02 00:47:16;;;;;;;0.93;0.55;;;19.00;67.10;;;;;;5063610;28;20097;-36
2022/09/02 00:49:47;;;;;;;0.60;0.60;;;19.00;67.20;;;;;;5063848;28;20072;-35
2022/09/02 00:52:25;;;;;;;0.70;0.60;;;19.00;67.20;;;;;;5063480;28;20468;-36
2022/09/02 00:54:56;;;;;;;4.50;0.90;;;19.00;67.30;;;;;;5064046;28;20150;-35
2022/09/02 00:57:26;;;;;;;0.70;0.60;;;19.00;67.30;;;;;;5050083;28;20024;-35
2022/09/02 01:00:09;;;;;;;3.10;0.98;;;18.90;67.40;;;;;;5063424;28;20479;-36
2022/09/02 01:02:36;;;;;;;;;;;18.90;67.40;;;;;;5064171;28;20039;-35
2022/09/02 01:05:04;;;;;;;1.38;0.52;;;18.90;67.50;;;;;;5063737;28;19912;-35
2022/09/02 01:07:36;;;;;;;0.60;0.60;;;18.80;67.40;;;;;;5061847;28;20506;-35
2022/09/02 01:10:04;;;;;;;0.63;0.55;;;18.80;67.60;;;;;;5062730;28;20364;-35
2022/09/02 01:12:31;;;;;;;0.90;0.45;;;18.80;67.70;;;;;;5063351;28;20451;-35
2022/09/02 01:14:57;;;;;;;0.55;0.50;;;18.70;67.70;;;;;;5063084;28;20017;-36
2022/09/02 01:17:25;;;;;;;3.53;0.70;;;18.70;68.40;;;;;;5063980;28;20033;-35
2022/09/02 01:19:55;;;;;;;0.90;0.60;;;18.70;67.80;;;;;;5062804;28;20150;-36
2022/09/02 01:22:27;;;;;;;0.65;0.50;;;18.60;67.80;;;;;;5065856;28;20024;-34
2022/09/02 01:24:55;;;;;;;0.43;0.40;;;18.70;68.00;;;;;;5067725;28;20041;-35
2022/09/02 01:27:22;;;;;;;2.40;0.60;;;18.60;67.80;;;;;;5067785;28;20062;-34
2022/09/02 01:29:56;;;;;;;0.47;0.40;;;18.60;67.90;;;;;;5067128;28;20071;-36
2022/09/02 01:32:23;;;;;;;1.33;0.70;;;18.60;67.90;;;;;;5067848;28;20492;-35
2022/09/02 01:34:48;;;;;;;1.02;0.60;;;18.60;67.90;;;;;;5066904;28;20090;-35
2022/09/02 01:37:15;;;;;;;1.38;0.52;;;18.60;68.00;;;;;;5067992;28;20379;-37
2022/09/02 01:39:41;;;;;;;0.65;0.50;;;18.60;68.00;;;;;;5067538;28;20583;-37
2022/09/02 01:42:07;;;;;;;1.20;0.60;;;18.60;68.10;;;;;;5067095;28;20020;-35
2022/09/02 01:44:36;;;;;;;0.75;0.55;;;18.60;68.10;;;;;;5067598;28;20040;-35
2022/09/02 01:47:02;;;;;;;1.27;0.52;;;18.60;68.10;;;;;;5067561;28;20103;-35
2022/09/02 01:49:28;;;;;;;0.65;0.60;;;18.50;68.10;;;;;;5066254;28;20480;-36
2022/09/02 01:51:55;;;;;;;1.10;0.88;;;18.50;68.80;;;;;;5067520;28;20027;-35
2022/09/02 01:54:20;;;;;;;1.25;0.60;;;18.50;68.20;;;;;;5067554;28;20048;-36
2022/09/02 01:56:46;;;;;;;1.67;0.60;;;18.50;68.20;;;;;;5065741;28;20013;-35
2022/09/02 01:59:16;;;;;;;0.90;0.50;;;18.40;68.30;;;;;;5066868;28;20369;-36
2022/09/02 02:01:43;;;;;;;0.60;0.60;;;18.40;68.40;;;;;;5067011;28;20403;-35
2022/09/02 02:04:08;;;;;;;1.55;0.60;;;18.40;68.50;;;;;;5066329;28;20035;-37
2022/09/02 02:06:35;;;;;;;1.13;1.00;;;18.40;68.50;;;;;;5066686;28;20040;-35
2022/09/02 02:09:00;;;;;;;0.95;0.52;;;18.40;68.50;;;;;;5067327;28;20025;-35
2022/09/02 02:11:26;;;;;;;0.95;0.52;;;18.40;68.50;;;;;;5066081;28;20066;-35
2022/09/02 02:13:51;;;;;;;1.25;0.50;;;18.40;68.60;;;;;;5066990;28;20033;-36
2022/09/02 02:16:17;;;;;;;3.38;0.57;;;18.40;68.60;;;;;;5066430;28;20032;-35
2022/09/02 02:18:43;;;;;;;1.38;0.50;;;18.40;69.00;;;;;;5066795;28;20702;-35
2022/09/02 02:21:08;;;;;;;0.88;0.60;;;18.30;68.60;;;;;;5066798;28;20368;-35
2022/09/02 02:23:34;;;;;;;0.80;0.70;;;18.30;68.70;;;;;;5065589;28;20027;-34
2022/09/02 02:26:00;;;;;;;0.82;0.60;;;18.30;68.70;;;;;;5066933;28;20021;-34
2022/09/02 02:28:25;;;;;;;1.92;0.77;;;18.30;68.80;;;;;;5066536;28;20131;-36
2022/09/02 02:30:51;;;;;;;1.20;0.70;;;18.30;69.00;;;;;;5065564;28;20336;-35
2022/09/02 02:33:16;;;;;;;0.88;0.60;;;18.30;68.80;;;;;;5066468;28;20060;-35
2022/09/02 02:35:42;;;;;;;0.80;0.70;;;18.30;68.80;;;;;;5066176;28;20020;-35
2022/09/02 02:38:09;;;;;;;0.57;0.50;;;18.30;68.70;;;;;;5065733;28;20523;-36
2022/09/02 02:40:34;;;;;;;0.90;0.50;;;18.30;68.70;;;;;;5066313;28;20417;-36
2022/09/02 02:43:00;;;;;;;2.05;0.50;;;18.30;68.70;;;;;;5066971;28;20021;-35
2022/09/02 02:45:26;;;;;;;0.88;0.50;;;18.40;68.80;;;;;;5064920;28;20468;-34
2022/09/02 02:47:52;;;;;;;1.23;0.60;;;18.30;68.70;;;;;;5066372;28;20021;-36
2022/09/02 02:50:20;;;;;;;1.63;0.50;;;18.40;68.80;;;;;;5066361;28;20469;-35
2022/09/02 02:52:47;;;;;;;2.25;0.55;;;18.40;68.90;;;;;;5064504;28;20025;-34
2022/09/02 02:55:14;;;;;;;0.73;0.50;;;18.30;68.80;;;;;;5066394;28;20113;-35
2022/09/02 02:57:42;;;;;;;2.25;0.68;;;18.30;68.80;;;;;;5066144;28;20021;-35
2022/09/02 03:00:15;;;;;;;0.65;0.52;;;18.30;68.90;;;;;;5065312;28;20298;-34
2022/09/02 03:02:40;;;;;;;1.20;0.65;;;18.30;68.90;;;;;;5065298;28;20063;-37
2022/09/02 03:05:08;;;;;;;1.13;0.63;;;18.30;68.90;;;;;;5066209;28;20107;-34
2022/09/02 03:07:34;;;;;;;1.02;0.60;;;18.30;68.90;;;;;;5065014;28;20070;-35
2022/09/02 03:09:59;;;;;;;0.77;0.55;;;18.30;69.70;;;;;;5065499;28;20020;-36
2022/09/02 03:12:25;;;;;;;0.57;0.50;;;18.30;69.00;;;;;;5065277;28;20024;-36
2022/09/02 03:14:51;;;;;;;0.52;0.50;;;18.20;69.00;;;;;;5065037;28;20029;-35
2022/09/02 03:17:18;;;;;;;0.60;0.60;;;18.30;69.20;;;;;;5066130;28;20423;-34
2022/09/02 03:19:43;;;;;;;0.60;0.55;;;18.20;69.10;;;;;;5064536;28;20250;-35
2022/09/02 03:22:09;;;;;;;2.10;0.57;;;18.20;69.10;;;;;;5065417;28;20016;-34
2022/09/02 03:24:36;;;;;;;1.10;0.90;;;18.20;69.20;;;;;;5065591;28;20028;-34
2022/09/02 03:27:03;;;;;;;0.60;0.55;;;18.20;69.20;;;;;;5064725;28;20024;-35
2022/09/02 03:29:28;;;;;;;1.52;0.50;;;18.20;69.30;;;;;;5064982;28;20464;-35
2022/09/02 03:31:54;;;;;;;0.63;0.30;;;18.10;69.20;;;;;;5065247;28;20028;-36
2022/09/02 03:34:19;;;;;;;0.55;0.55;;;18.10;69.30;;;;;;5065486;28;20032;-35
2022/09/02 03:36:46;;;;;;;0.77;0.50;;;18.10;69.30;;;;;;5064681;28;20035;-35
2022/09/02 03:39:11;;;;;;;0.88;0.60;;;18.10;69.40;;;;;;5065558;28;20812;-36
2022/09/02 03:41:40;;;;;;;0.70;0.60;;;18.10;69.50;;;;;;5065125;28;20028;-34
2022/09/02 03:44:06;;;;;;;0.93;0.65;;;18.10;69.60;;;;;;5065032;28;20078;-34
2022/09/02 03:46:31;;;;;;;1.10;0.63;;;18.00;69.60;;;;;;5064150;28;20031;-35
2022/09/02 03:48:57;;;;;;;0.80;0.60;;;18.00;69.70;;;;;;5064390;28;20020;-35
2022/09/02 03:51:23;;;;;;;1.08;0.52;;;18.00;69.70;;;;;;5065663;28;20063;-35
2022/09/02 03:53:49;;;;;;;2.10;0.60;;;18.00;69.70;;;;;;5065045;28;20139;-35
2022/09/02 03:56:16;;;;;;;6.63;2.25;;;18.00;69.70;;;;;;5064812;28;20534;-36
2022/09/02 03:58:44;;;;;;;0.73;0.50;;;18.00;69.80;;;;;;5064977;28;20063;-35
2022/09/02 04:01:18;;;;;;;1.95;0.60;;;18.00;69.90;;;;;;5065261;28;20041;-36
2022/09/02 04:03:43;;;;;;;0.60;0.45;;;17.90;69.80;;;;;;5063770;28;20650;-36
2022/09/02 04:06:11;;;;;;;0.80;0.60;;;17.90;69.90;;;;;;5064940;28;20028;-35
2022/09/02 04:08:39;;;;;;;1.02;0.70;;;17.90;69.90;;;;;;5064700;28;20479;-35
2022/09/02 04:11:07;;;;;;;1.25;0.60;;;17.90;70.00;;;;;;5063676;28;20126;-35
2022/09/02 04:13:33;;;;;;;0.63;0.50;;;17.80;70.10;;;;;;5064064;28;20024;-35
2022/09/02 04:15:58;;;;;;;1.15;0.93;;;17.80;70.10;;;;;;5063795;28;20561;-35
2022/09/02 04:18:24;;;;;;;2.53;0.60;;;17.80;70.30;;;;;;5064576;28;20115;-36
2022/09/02 04:20:49;;;;;;;0.77;0.70;;;17.70;70.30;;;;;;5064425;28;20558;-36
2022/09/02 04:23:15;;;;;;;1.08;0.70;;;17.70;70.40;;;;;;5064022;28;20043;-34
2022/09/02 04:25:42;;;;;;;1.15;0.70;;;17.70;70.50;;;;;;5064059;28;20027;-35
2022/09/02 04:28:08;;;;;;;0.75;0.55;;;17.70;70.50;;;;;;5064400;28;20020;-35
2022/09/02 04:30:37;;;;;;;0.95;0.60;;;17.60;70.60;;;;;;5063421;28;20035;-35
2022/09/02 04:33:02;;;;;;;2.40;0.85;;;17.60;70.70;;;;;;5064147;28;20025;-36
2022/09/02 04:35:28;;;;;;;1.10;0.60;;;17.60;70.80;;;;;;5064218;28;20027;-34
2022/09/02 04:37:53;;;;;;;0.82;0.50;;;17.60;70.90;;;;;;5063399;28;20472;-35
2022/09/02 04:40:19;;;;;;;0.75;0.68;;;17.60;71.00;;;;;;5064908;28;20121;-34
2022/09/02 04:42:45;;;;;;;0.77;0.60;;;17.60;70.90;;;;;;5063547;28;20028;-35
2022/09/02 04:45:10;;;;;;;0.60;0.50;;;17.60;70.90;;;;;;5063775;28;20025;-36
2022/09/02 04:47:36;;;;;;;1.50;0.73;;;17.60;71.10;;;;;;5063819;28;20060;-36
2022/09/02 04:50:02;;;;;;;1.73;0.70;;;17.60;71.10;;;;;;5063293;28;20031;-34
2022/09/02 04:52:28;;;;;;;1.08;0.70;;;17.50;71.10;;;;;;5062613;28;20306;-34
2022/09/02 04:54:54;;;;;;;1.38;0.60;;;17.60;71.20;;;;;;5062997;28;20076;-35
2022/09/02 04:57:19;;;;;;;0.80;0.50;;;17.50;71.10;;;;;;5064256;28;20119;-35
2022/09/02 04:59:45;;;;;;;0.70;0.60;;;17.50;71.10;;;;;;5062480;28;20551;-34
2022/09/02 05:02:10;;;;;;;1.50;0.50;;;17.50;72.00;;;;;;5063665;28;20016;-35
2022/09/02 05:04:36;;;;;;;0.73;0.40;;;17.50;71.30;;;;;;5063870;28;20040;-34
2022/09/02 05:07:02;;;;;;;0.65;0.55;;;17.50;71.30;;;;;;5062592;28;20028;-34
2022/09/02 05:09:29;;;;;;;2.33;0.50;;;17.50;71.30;;;;;;5064078;28;20252;-34
2022/09/02 05:11:56;;;;;;;1.65;0.60;;;17.50;71.30;;;;;;5063133;28;20521;-35
2022/09/02 05:14:23;;;;;;;2.00;0.70;;;17.60;71.30;;;;;;5063236;28;20029;-35
2022/09/02 05:16:53;;;;;;;1.30;0.65;;;17.60;71.30;;;;;;5063147;28;20103;-36
2022/09/02 05:19:22;;;;;;;1.75;0.60;;;17.60;71.40;;;;;;5063045;28;20124;-35
2022/09/02 05:21:48;;;;;;;1.15;0.70;;;17.60;71.40;;;;;;5062789;28;20426;-35
2022/09/02 05:24:13;;;;;;;0.98;0.68;;;17.60;71.40;;;;;;5063586;28;20434;-33
2022/09/02 05:26:41;;;;;;;0.70;0.70;;;17.60;71.50;;;;;;5062539;28;20495;-36
2022/09/02 05:29:07;;;;;;;0.85;0.70;;;17.60;71.70;;;;;;5063574;28;20036;-35
2022/09/02 05:31:33;;;;;;;1.10;0.73;;;17.60;71.50;;;;;;5063262;28;20024;-34
2022/09/02 05:33:59;;;;;;;0.60;0.60;;;17.60;71.60;;;;;;5062882;28;20028;-36
2022/09/02 05:36:24;;;;;;;0.70;0.50;;;17.60;71.60;;;;;;5063353;28;20023;-34
2022/09/02 05:38:50;;;;;;;0.52;0.52;;;17.60;71.70;;;;;;5063268;28;20057;-35
2022/09/02 05:41:22;;;;;;;1.33;0.60;;;17.50;71.80;;;;;;5063370;28;20115;-35
2022/09/02 05:43:49;;;;;;;0.80;0.65;;;17.50;71.80;;;;;;5059605;28;20777;-34
2022/09/02 05:46:17;;;;;;;1.02;0.60;;;17.50;71.90;;;;;;5064115;28;20044;-37
2022/09/02 05:51:30;;;;;;;2.05;0.50;;;17.50;72.00;;;;;;5063850;28;20537;-35
2022/09/02 05:53:57;;;;;;;1.45;0.60;;;17.50;72.00;;;;;;5063435;28;20085;-35
2022/09/02 05:56:23;;;;;;;0.82;0.52;;;17.50;72.00;;;;;;5063063;28;20490;-36
2022/09/02 05:58:50;;;;;;;0.50;0.50;;;17.50;72.10;;;;;;5063773;28;20031;-37
2022/09/02 06:01:17;;;;;;;1.15;0.80;;;17.50;72.00;;;;;;5060448;28;20082;-35
2022/09/02 06:03:43;;;;;;;1.40;0.70;;;17.50;72.10;;;;;;5061631;28;20123;-36
2022/09/02 06:06:09;;;;;;;1.35;0.75;;;17.60;72.20;;;;;;5062908;28;20522;-35
2022/09/02 06:08:35;;;;;;;2.03;0.90;;;17.60;72.10;;;;;;5062564;28;20062;-35
2022/09/02 06:11:02;;;;;;;0.90;0.75;;;17.70;72.10;;;;;;5065547;28;20042;-34
2022/09/02 06:13:30;;;;;;;1.05;0.80;;;17.70;72.00;;;;;;5066302;28;20382;-36
2022/09/02 06:15:56;;;;;;;1.00;0.80;;;17.80;72.00;;;;;;5064839;28;20044;-36
2022/09/02 06:18:23;;;;;;;2.10;0.90;;;17.90;71.90;;;;;;5066636;28;20028;-35
2022/09/02 06:20:48;;;;;;;1.45;0.70;;;17.90;71.70;;;;;;5065300;28;20040;-35
2022/09/02 06:23:15;;;;;;;1.80;0.63;;;18.00;71.80;;;;;;5064988;28;20028;-34
2022/09/02 06:25:43;;;;;;;1.67;0.73;;;18.10;71.80;;;;;;5065646;28;20027;-36
2022/09/02 06:28:09;;;;;;;1.48;0.70;;;18.20;71.70;;;;;;5065288;28;20058;-36
2022/09/02 06:30:38;;;;;;;0.63;0.63;;;18.20;71.60;;;;;;5064744;28;20456;-35
2022/09/02 06:33:03;;;;;;;2.97;0.70;;;18.20;71.50;;;;;;5066006;28;20110;-35
2022/09/02 06:35:30;;;;;;;0.60;0.60;;;18.30;71.50;;;;;;5065274;28;20070;-36
2022/09/02 06:37:57;;;;;;;0.57;0.52;;;18.30;71.60;;;;;;5065403;28;20471;-43
2022/09/02 06:40:23;;;;;;;0.88;0.70;;;18.20;71.50;;;;;;5065630;28;20040;-35
2022/09/02 06:42:49;;;;;;;1.17;0.98;;;18.20;71.60;;;;;;5065666;28;20050;-35
2022/09/02 06:45:15;;;;;;;3.08;0.80;;;18.20;71.70;;;;;;5065069;28;20491;-34
2022/09/02 06:47:41;;;;;;;2.28;0.82;;;18.20;71.90;;;;;;5065598;28;20117;-36
2022/09/02 06:50:07;;;;;;;5.10;0.90;;;18.20;71.90;;;;;;5065689;28;20031;-35
2022/09/02 06:52:33;;;;;;;2.25;1.05;;;18.20;72.00;;;;;;5064855;28;20629;-35
2022/09/02 06:54:59;;;;;;;1.50;0.73;;;18.10;71.90;;;;;;5063858;28;20040;-36
2022/09/02 06:57:24;;;;;;;1.48;0.68;;;18.20;72.00;;;;;;5064843;28;20055;-35
2022/09/02 06:59:50;;;;;;;1.63;0.70;;;18.20;72.10;;;;;;5064886;28;20435;-34
2022/09/02 07:02:16;;;;;;;2.65;0.80;;;18.20;72.10;;;;;;5066236;28;20040;-34
2022/09/02 07:07:26;;;;;;;1.30;0.85;;;18.20;72.10;;;;;;5065719;28;20074;-36
2022/09/02 07:09:54;;;;;;;1.88;0.90;;;18.30;72.10;;;;;;5064113;28;20408;-34
2022/09/02 07:12:20;;;;;;;2.22;0.85;;;18.30;72.10;;;;;;5064953;28;20078;-35
2022/09/02 07:14:45;;;;;;;0.70;0.70;;;18.30;72.10;;;;;;5064638;28;20334;-35
2022/09/02 07:17:16;;;;;;;1.02;0.90;;;18.40;72.00;;;;;;5065707;28;20024;-35
2022/09/02 07:19:43;;;;;;;1.70;0.80;;;18.50;71.90;;;;;;5064509;28;20459;-36
2022/09/02 07:22:09;;;;;;;2.28;0.70;;;18.50;71.90;;;;;;5065142;28;20048;-35
2022/09/02 07:24:35;;;;;;;1.75;0.85;;;18.50;71.80;;;;;;5065352;28;20107;-36
2022/09/02 07:27:01;;;;;;;1.50;0.90;;;18.60;71.80;;;;;;5064432;28;20024;-35
2022/09/02 07:29:27;;;;;;;2.20;0.90;;;18.70;71.80;;;;;;5065421;28;20032;-36
2022/09/02 07:31:52;;;;;;;1.00;0.73;;;18.70;71.80;;;;;;5064960;28;20051;-35
2022/09/02 07:34:18;;;;;;;1.33;0.60;;;18.80;71.80;;;;;;5064441;28;20029;-36
2022/09/02 07:36:44;;;;;;;2.63;0.80;;;18.90;71.80;;;;;;5064393;28;20036;-36
2022/09/02 07:39:11;;;;;;;3.42;0.98;;;19.00;71.70;;;;;;5065791;28;20197;-36
2022/09/02 07:41:38;;;;;;;1.98;0.90;;;19.10;71.70;;;;;;5063677;28;20136;-34
2022/09/02 07:44:04;;;;;;;1.65;0.93;;;19.20;71.60;;;;;;5064514;28;20029;-36
2022/09/02 07:46:31;;;;;;;1.17;0.95;;;19.30;71.50;;;;;;5064776;28;20073;-34
2022/09/02 07:48:59;;;;;;;1.48;0.68;;;19.40;71.40;;;;;;5064524;28;20020;-35
2022/09/02 07:51:25;;;;;;;0.75;0.68;;;19.60;71.30;;;;;;5064731;28;20491;-35
2022/09/02 07:53:51;;;;;;;3.65;1.15;;;19.70;71.10;;;;;;5064310;28;20132;-35
2022/09/02 07:56:17;;;;;;;2.25;0.90;;;19.80;70.80;;;;;;5063879;28;20448;-36
2022/09/02 07:58:44;;;;;;;4.07;0.80;;;19.90;70.80;;;;;;5064371;28;20028;-34
2022/09/02 08:01:10;;;;;;;2.72;0.98;;;20.00;70.70;;;;;;5063776;28;20395;-35
2022/09/02 08:03:38;;;;;;;3.83;1.23;;;20.00;70.60;;;;;;5064843;28;20381;-34
2022/09/02 08:06:05;;;;;;;3.05;1.27;;;20.10;70.60;;;;;;5063860;28;20380;-35
2022/09/02 08:08:31;;;;;;;2.45;1.00;;;20.10;70.50;;;;;;5062659;28;20059;-36
2022/09/02 08:10:58;;;;;;;1.73;1.02;;;20.20;70.40;;;;;;5064867;28;20032;-36
2022/09/02 08:13:24;;;;;;;2.90;0.95;;;20.30;70.40;;;;;;5064670;28;20047;-35
2022/09/02 08:15:49;;;;;;;2.78;1.00;;;20.30;70.30;;;;;;5063482;28;20033;-36
2022/09/02 08:18:16;;;;;;;2.83;0.80;;;20.40;70.20;;;;;;5064439;28;20028;-36
2022/09/02 08:20:41;;;;;;;2.45;1.20;;;20.50;70.30;;;;;;5064010;28;20029;-35
2022/09/02 08:23:07;;;;;;;1.73;1.05;;;20.60;70.30;;;;;;5062719;28;20029;-35
2022/09/02 08:25:34;;;;;;;0.90;0.85;;;20.70;70.30;;;;;;5063829;28;20035;-37
2022/09/02 08:28:00;;;;;;;1.20;0.70;;;20.80;70.20;;;;;;5063558;28;20016;-36
2022/09/02 08:30:26;;;;;;;1.65;0.95;;;20.90;70.10;;;;;;5062728;28;20032;-36
2022/09/02 08:32:51;;;;;;;1.73;0.90;;;21.00;70.00;;;;;;5063380;28;20017;-35
2022/09/02 08:35:17;;;;;;;1.10;0.80;;;21.00;69.70;;;;;;5063580;28;20491;-36
2022/09/02 08:37:42;;;;;;;1.70;0.90;;;21.10;69.90;;;;;;5063406;28;20739;-36
2022/09/02 08:40:15;;;;;;;1.70;0.90;;;21.10;69.60;;;;;;5064290;28;20041;-38
2022/09/02 08:42:45;;;;;;;2.10;0.93;;;21.20;69.60;;;;;;5063233;28;20460;-36
2022/09/02 08:45:36;;;;;;;2.35;1.00;;;21.20;69.30;;;;;;5062753;28;20081;-36
2022/09/02 08:48:20;;;;;;;2.75;1.02;;;21.20;69.40;;;;;;5063824;28;20755;-37
2022/09/02 08:50:49;;;;;;;1.35;0.98;;;21.30;69.40;;;;;;5051581;28;20530;-36
2022/09/02 08:53:33;;;;;;;1.65;1.08;;;21.30;69.40;;;;;;5063711;28;20094;-36
2022/09/02 08:56:00;;;;;;;1.85;1.00;;;21.30;69.30;;;;;;5062896;28;20353;-36
2022/09/02 08:58:38;;;;;;;1.75;1.20;;;21.30;69.30;;;;;;5063008;28;20020;-35
2022/09/02 09:01:37;;;;;;;3.47;1.15;;;21.40;69.20;;;;;;5063751;28;20505;-36
2022/09/02 09:04:08;;;;;;;3.78;1.00;;;21.40;69.30;;;;;;5063353;28;20064;-36
2022/09/02 09:06:39;;;;;;;1.35;0.98;;;21.40;69.30;;;;;;5063058;28;20032;-35
2022/09/02 09:09:24;;;;;;;2.00;0.90;;;21.40;69.20;;;;;;5064182;28;20431;-37
2022/09/02 09:12:31;;;;;;;1.27;0.80;;;21.50;69.30;;;;;;5063555;28;20044;-36
2022/09/02 09:15:10;;;;;;;3.33;1.10;;;21.50;69.30;;;;;;5049005;28;20446;-36
2022/09/02 09:17:56;;;;;;;3.47;1.00;;;21.60;69.30;;;;;;5063989;28;20021;-35
2022/09/02 09:20:32;;;;;;;3.33;1.20;;;21.60;69.30;;;;;;5063458;28;20040;-36
2022/09/02 09:23:00;;;;;;;2.97;0.80;;;21.60;70.00;;;;;;5043707;28;20040;-37
2022/09/02 09:25:28;;;;;;;2.13;0.75;;;21.70;69.40;;;;;;5056913;28;20456;-37
2022/09/02 09:28:03;;;;;;;2.83;1.00;;;21.70;69.40;;;;;;5063594;28;20036;-37
2022/09/02 09:30:28;;;;;;;1.83;1.00;;;21.80;69.40;;;;;;5063597;28;20031;-36
2022/09/02 09:32:58;;;;;;;3.00;1.10;;;21.90;69.30;;;;;;5063032;28;20021;-36
2022/09/02 09:35:26;;;;;;;3.00;0.98;;;22.00;69.40;;;;;;5062532;28;20495;-35
2022/09/02 09:37:53;;;;;;;3.70;1.10;;;22.10;69.20;;;;;;5063554;28;20112;-36
2022/09/02 09:40:23;;;;;;;1.60;1.20;;;22.10;69.00;;;;;;5066099;28;20028;-36
2022/09/02 09:43:04;;;;;;;2.58;1.20;;;22.20;68.80;;;;;;5072220;28;20052;-37
2022/09/02 09:45:50;;;;;;;2.60;1.00;;;22.20;68.70;;;;;;5076564;28;20039;-35
2022/09/02 09:48:15;;;;;;;2.75;1.20;;;22.30;68.70;;;;;;5067091;28;20025;-36
2022/09/02 09:51:11;;;;;;;1.83;1.20;;;22.40;68.50;;;;;;5066627;28;20446;-35
2022/09/02 09:53:37;;;;;;;4.45;1.20;;;22.40;68.40;;;;;;5064928;28;20044;-38
2022/09/02 09:56:13;;;;;;;1.63;1.10;;;22.50;68.40;;;;;;5065887;28;20590;-38
2022/09/02 09:58:39;;;;;;;1.58;1.00;;;22.50;68.50;;;;;;5067790;28;20032;-37
2022/09/02 10:01:28;;;;;;;2.20;1.00;;;22.60;68.50;;;;;;5066213;28;20032;-36
2022/09/02 10:04:10;;;;;;;2.28;0.77;;;22.70;68.40;;;;;;5066916;28;20043;-36
2022/09/02 10:06:35;;;;;;;2.15;1.05;;;22.80;68.40;;;;;;5066125;28;20024;-37
2022/09/02 10:09:02;;;;;;;1.55;1.17;;;22.90;68.30;;;;;;5066301;28;20093;-36
2022/09/02 10:11:33;;;;;;;1.73;1.10;;;22.90;68.10;;;;;;5066451;28;20033;-36
2022/09/02 10:14:05;;;;;;;1.27;0.95;;;22.90;68.10;;;;;;5066492;28;20515;-36
2022/09/02 10:16:30;;;;;;;1.83;1.10;;;23.00;68.20;;;;;;5065567;28;20432;-37
2022/09/02 10:19:38;;;;;;;2.47;1.02;;;23.10;68.20;;;;;;5066607;28;20164;-37
2022/09/02 10:22:33;;;;;;;1.25;1.02;;;23.10;68.10;;;;;;5065278;28;20549;-36
2022/09/02 10:25:27;;;;;;;3.92;1.20;;;23.20;68.00;;;;;;5046390;28;20044;-36
2022/09/02 10:28:23;;;;;;;3.40;1.13;;;23.20;67.90;;;;;;5064746;28;20103;-37
2022/09/02 10:31:22;;;;;;;0.80;0.80;;;23.30;67.90;;;;;;5066370;28;20059;-37
2022/09/02 10:34:14;;;;;;;2.47;1.20;;;23.40;67.90;;;;;;5062788;28;20558;-37
2022/09/02 10:37:08;;;;;;;1.42;0.88;;;23.40;67.80;;;;;;5065497;28;20050;-37
2022/09/02 10:39:56;;;;;;;4.22;1.60;;;23.50;67.80;;;;;;5058516;28;20115;-38
2022/09/02 10:42:42;;;;;;;2.05;1.10;;;23.50;67.50;;;;;;5066197;28;20028;-36
2022/09/02 10:45:20;;;;;;;3.60;1.15;;;23.50;67.50;;;;;;5065271;28;20024;-36
2022/09/02 10:48:05;;;;;;;1.98;1.23;;;23.60;67.50;;;;;;5065328;28;20063;-36
2022/09/02 10:50:41;;;;;;;3.88;1.25;;;23.60;67.50;;;;;;5051223;28;20100;-36
2022/09/02 10:53:26;;;;;;;2.42;1.30;;;23.70;67.50;;;;;;5058464;28;20050;-36
2022/09/02 10:56:10;;;;;;;1.45;1.25;;;23.80;67.60;;;;;;5065205;28;20035;-37
2022/09/02 10:58:47;;;;;;;3.50;1.27;;;23.80;67.30;;;;;;5065797;28;20028;-35
2022/09/02 11:01:23;;;;;;;2.45;1.10;;;23.90;67.10;;;;;;5046283;28;20029;-36
2022/09/02 11:04:12;;;;;;;6.13;1.13;;;23.90;67.10;;;;;;5060720;28;20810;-37
2022/09/02 11:06:40;;;;;;;3.00;1.17;;;24.00;67.10;;;;;;5045500;28;20029;-36
2022/09/02 11:09:13;;;;;;;2.55;1.30;;;24.10;67.10;;;;;;5062089;28;20040;-36
2022/09/02 11:11:52;;;;;;;1.27;1.05;;;24.10;66.70;;;;;;5064760;28;20115;-38
2022/09/02 11:14:31;;;;;;;2.45;1.25;;;24.20;66.50;;;;;;5065133;28;20155;-36
2022/09/02 11:17:08;;;;;;;1.40;1.30;;;24.30;66.40;;;;;;5065539;28;20029;-39
2022/09/02 11:19:50;;;;;;;2.25;1.05;;;24.30;66.40;;;;;;5064139;28;20024;-36
2022/09/02 11:22:32;;;;;;;1.15;1.05;;;24.40;66.50;;;;;;5065402;28;20028;-37
2022/09/02 11:25:25;;;;;;;1.50;1.10;;;24.40;66.50;;;;;;5064028;28;20050;-35
2022/09/02 11:27:58;;;;;;;;;;;24.50;66.40;;;;;;5065678;28;20098;-37
2022/09/02 11:30:34;;;;;;;1.33;1.20;;;24.60;66.40;;;;;;5061337;28;20267;-36
2022/09/02 11:33:19;;;;;;;1.17;0.90;;;24.60;66.20;;;;;;5063829;28;20029;-36
2022/09/02 11:35:45;;;;;;;1.27;1.15;;;24.70;66.10;;;;;;5061733;28;20402;-36
2022/09/02 11:38:48;;;;;;;1.55;1.10;;;24.70;65.70;;;;;;5064891;28;20375;-36
2022/09/02 11:41:13;;;;;;;;;;;24.80;65.10;;;;;;5065624;28;20040;-36
2022/09/02 11:43:54;;;;;;;1.50;1.38;;;24.90;64.90;;;;;;5064838;28;20585;-36
2022/09/02 11:46:38;;;;;;;1.33;1.23;;;24.90;64.40;;;;;;5052837;28;20020;-38
2022/09/02 11:49:14;;;;;;;1.27;1.20;;;25.10;64.40;;;;;;5064861;28;20025;-38
2022/09/02 11:51:52;;;;;;;1.20;1.00;;;25.20;64.20;;;;;;5054805;28;20028;-37
2022/09/02 11:54:20;;;;;;;1.15;1.00;;;25.20;64.20;;;;;;5063864;28;20420;-36
2022/09/02 11:56:55;;;;;;;2.67;1.20;;;25.30;64.00;;;;;;5064316;28;20029;-36
2022/09/02 11:59:43;;;;;;;1.52;1.20;;;25.40;63.10;;;;;;5063631;28;20369;-36
2022/09/02 12:02:10;;;;;;;1.67;1.20;;;25.50;62.50;;;;;;5055321;28;20114;-37
2022/09/02 12:04:35;;;;;;;1.25;1.10;;;25.40;62.30;;;;;;5064739;28;20027;-36
2022/09/02 12:07:05;;;;;;;1.40;0.90;;;25.40;62.40;;;;;;5052652;28;20562;-37
2022/09/02 12:09:51;;;;;;;1.98;1.00;;;25.40;62.40;;;;;;5062518;28;20020;-36
2022/09/02 12:12:45;;;;;;;2.10;1.00;;;25.50;62.20;;;;;;5054564;28;20020;-37
2022/09/02 12:15:16;;;;;;;1.05;0.95;;;25.60;62.00;;;;;;5063281;28;20074;-36
2022/09/02 12:17:50;;;;;;;1.52;0.90;;;25.70;62.00;;;;;;5064274;28;20035;-36
2022/09/02 12:20:38;;;;;;;0.90;0.85;;;25.70;61.90;;;;;;5063810;28;20090;-37
2022/09/02 12:23:04;;;;;;;1.25;1.00;;;25.70;62.10;;;;;;5063447;28;20033;-37
2022/09/02 12:25:32;;;;;;;0.98;0.98;;;25.60;62.00;;;;;;5064489;28;20123;-38
2022/09/02 12:28:20;;;;;;;0.88;0.80;;;25.70;62.10;;;;;;5063439;28;20556;-37
2022/09/02 12:30:55;;;;;;;1.10;1.00;;;25.70;62.00;;;;;;5063377;28;20029;-37
2022/09/02 12:33:34;;;;;;;2.78;1.00;;;25.70;61.70;;;;;;5064849;28;20070;-36
2022/09/02 12:36:01;;;;;;;1.73;1.00;;;25.70;61.40;;;;;;5063180;28;20077;-36
2022/09/02 12:38:29;;;;;;;1.15;1.08;;;25.70;61.50;;;;;;5065992;28;20020;-36
2022/09/02 12:41:04;;;;;;;1.60;1.20;;;25.70;60.50;;;;;;5077653;28;20036;-36
2022/09/02 12:44:04;;;;;;;1.33;1.00;;;25.70;60.60;;;;;;5063620;28;20032;-37
2022/09/02 12:46:49;;;;;;;0.90;0.90;;;25.70;60.50;;;;;;5062951;28;20487;-38
2022/09/02 12:49:47;;;;;;;2.72;1.20;;;25.70;60.40;;;;;;5063142;28;20046;-35
2022/09/02 12:52:46;;;;;;;1.20;1.10;;;25.80;60.40;;;;;;5064215;28;20085;-37
2022/09/02 12:55:28;;;;;;;1.25;1.05;;;25.90;60.30;;;;;;5032027;28;20053;-36
2022/09/02 12:58:04;;;;;;;;;;;25.90;60.40;;;;;;5062612;28;20027;-35
2022/09/02 13:00:36;;;;;;;1.10;1.00;;;26.00;60.00;;;;;;5063222;28;19916;-37
2022/09/02 13:03:11;;;;;;;;;;;26.10;60.00;;;;;;5063359;28;20719;-36
2022/09/02 13:05:40;;;;;;;1.52;0.90;;;26.20;60.10;;;;;;5063803;28;19915;-34
2022/09/02 13:08:28;;;;;;;1.40;1.30;;;26.10;60.00;;;;;;5063235;28;20028;-35
2022/09/02 13:11:13;;;;;;;1.20;1.05;;;26.10;59.70;;;;;;5063027;28;20028;-36